sensor_id;sensor_type;location;lat;lon;timestamp;P1;durP1;ratioP1;P2;durP2;ratioP2
11039;SDS011;5573;49.592;8.662;2024-03-06T00:01:06;33.80;;;32.10;;
11039;SDS011;5573;49.592;8.662;2024-03-06T00:03:34;35.37;;;33.57;;
11039;SDS011;5573;49.592;8.662;2024-03-06T00:06:01;30.60;;;29.03;;
11039;SDS011;5573;49.592;8.662;2024-03-06T00:08:30;32.80;;;31.10;;
11039;SDS011;5573;49.592;8.662;2024-03-06T00:10:59;34.07;;;32.30;;
11039;SDS011;5573;49.592;8.662;2024-03-06T00:13:27;31.53;;;29.93;;
11039;SDS011;5573;49.592;8.662;2024-03-06T00:15:54;30.87;;;29.27;;
11039;SDS011;5573;49.592;8.662;2024-03-06T00:18:23;32.57;;;30.80;;
11039;SDS011;5573;49.592;8.662;2024-03-06T00:20:51;34.10;;;32.30;;
11039;SDS011;5573;49.592;8.662;2024-03-06T00:23:18;31.47;;;29.87;;
11039;SDS011;5573;49.592;8.662;2024-03-06T00:25:47;29.20;;;27.60;;
11039;SDS011;5573;49.592;8.662;2024-03-06T00:28:16;30.03;;;28.43;;
11039;SDS011;5573;49.592;8.662;2024-03-06T00:30:44;31.13;;;29.53;;
11039;SDS011;5573;49.592;8.662;2024-03-06T00:33:11;31.10;;;29.50;;
11039;SDS011;5573;49.592;8.662;2024-03-06T00:35:39;33.00;;;31.10;;
11039;SDS011;5573;49.592;8.662;2024-03-06T00:38:07;29.77;;;27.97;;
11039;SDS011;5573;49.592;8.662;2024-03-06T00:40:35;30.03;;;28.33;;
11039;SDS011;5573;49.592;8.662;2024-03-06T00:43:03;29.43;;;27.73;;
11039;SDS011;5573;49.592;8.662;2024-03-06T00:45:32;28.93;;;27.43;;
11039;SDS011;5573;49.592;8.662;2024-03-06T00:48:00;29.17;;;27.67;;
11039;SDS011;5573;49.592;8.662;2024-03-06T00:50:27;28.37;;;26.93;;
11039;SDS011;5573;49.592;8.662;2024-03-06T00:52:55;27.97;;;26.53;;
11039;SDS011;5573;49.592;8.662;2024-03-06T00:55:23;30.40;;;28.80;;
11039;SDS011;5573;49.592;8.662;2024-03-06T00:57:51;26.93;;;25.53;;
11039;SDS011;5573;49.592;8.662;2024-03-06T01:00:19;26.40;;;24.97;;
11039;SDS011;5573;49.592;8.662;2024-03-06T01:02:48;27.20;;;25.80;;
11039;SDS011;5573;49.592;8.662;2024-03-06T01:05:16;26.97;;;25.60;;
11039;SDS011;5573;49.592;8.662;2024-03-06T01:07:44;26.20;;;24.87;;
11039;SDS011;5573;49.592;8.662;2024-03-06T01:10:12;25.67;;;24.33;;
11039;SDS011;5573;49.592;8.662;2024-03-06T01:12:39;28.03;;;26.57;;
11039;SDS011;5573;49.592;8.662;2024-03-06T01:15:10;26.77;;;25.40;;
11039;SDS011;5573;49.592;8.662;2024-03-06T01:17:38;25.83;;;24.50;;
11039;SDS011;5573;49.592;8.662;2024-03-06T01:20:08;28.70;;;27.20;;
11039;SDS011;5573;49.592;8.662;2024-03-06T01:22:36;27.47;;;26.07;;
11039;SDS011;5573;49.592;8.662;2024-03-06T01:25:04;26.17;;;24.83;;
11039;SDS011;5573;49.592;8.662;2024-03-06T01:27:33;26.17;;;24.80;;
11039;SDS011;5573;49.592;8.662;2024-03-06T01:30:01;27.40;;;26.00;;
11039;SDS011;5573;49.592;8.662;2024-03-06T01:32:29;24.97;;;23.70;;
11039;SDS011;5573;49.592;8.662;2024-03-06T01:34:57;25.63;;;24.33;;
11039;SDS011;5573;49.592;8.662;2024-03-06T01:37:26;24.57;;;23.33;;
11039;SDS011;5573;49.592;8.662;2024-03-06T01:39:54;27.20;;;25.77;;
11039;SDS011;5573;49.592;8.662;2024-03-06T01:42:22;27.40;;;26.00;;
11039;SDS011;5573;49.592;8.662;2024-03-06T01:44:50;27.43;;;26.03;;
11039;SDS011;5573;49.592;8.662;2024-03-06T01:47:18;26.00;;;24.67;;
11039;SDS011;5573;49.592;8.662;2024-03-06T01:49:46;26.97;;;25.57;;
11039;SDS011;5573;49.592;8.662;2024-03-06T01:52:14;25.27;;;24.00;;
11039;SDS011;5573;49.592;8.662;2024-03-06T01:54:45;25.97;;;24.67;;
11039;SDS011;5573;49.592;8.662;2024-03-06T01:57:15;24.87;;;23.57;;
11039;SDS011;5573;49.592;8.662;2024-03-06T01:59:44;25.57;;;24.23;;
11039;SDS011;5573;49.592;8.662;2024-03-06T02:02:12;25.47;;;24.17;;
11039;SDS011;5573;49.592;8.662;2024-03-06T02:04:40;25.73;;;24.43;;
11039;SDS011;5573;49.592;8.662;2024-03-06T02:07:09;26.00;;;24.70;;
11039;SDS011;5573;49.592;8.662;2024-03-06T02:09:38;25.90;;;24.53;;
11039;SDS011;5573;49.592;8.662;2024-03-06T02:12:07;25.50;;;24.20;;
11039;SDS011;5573;49.592;8.662;2024-03-06T02:14:35;24.83;;;23.53;;
11039;SDS011;5573;49.592;8.662;2024-03-06T02:17:04;24.10;;;22.83;;
11039;SDS011;5573;49.592;8.662;2024-03-06T02:19:38;22.97;;;21.80;;
11039;SDS011;5573;49.592;8.662;2024-03-06T02:22:08;26.13;;;24.60;;
11039;SDS011;5573;49.592;8.662;2024-03-06T02:24:37;24.23;;;23.00;;
11039;SDS011;5573;49.592;8.662;2024-03-06T02:27:06;23.30;;;22.10;;
11039;SDS011;5573;49.592;8.662;2024-03-06T02:29:34;24.90;;;23.60;;
11039;SDS011;5573;49.592;8.662;2024-03-06T02:32:02;23.00;;;21.80;;
11039;SDS011;5573;49.592;8.662;2024-03-06T02:34:29;25.43;;;24.13;;
11039;SDS011;5573;49.592;8.662;2024-03-06T02:36:58;23.80;;;22.47;;
11039;SDS011;5573;49.592;8.662;2024-03-06T02:39:27;23.40;;;22.17;;
11039;SDS011;5573;49.592;8.662;2024-03-06T02:41:55;25.07;;;23.77;;
11039;SDS011;5573;49.592;8.662;2024-03-06T02:44:23;24.77;;;23.47;;
11039;SDS011;5573;49.592;8.662;2024-03-06T02:46:51;27.30;;;25.90;;
11039;SDS011;5573;49.592;8.662;2024-03-06T02:49:19;26.73;;;25.23;;
11039;SDS011;5573;49.592;8.662;2024-03-06T02:51:47;24.43;;;23.13;;
11039;SDS011;5573;49.592;8.662;2024-03-06T02:54:15;24.63;;;23.37;;
11039;SDS011;5573;49.592;8.662;2024-03-06T02:56:44;27.80;;;26.30;;
11039;SDS011;5573;49.592;8.662;2024-03-06T02:59:12;27.40;;;25.97;;
11039;SDS011;5573;49.592;8.662;2024-03-06T03:01:40;24.73;;;23.47;;
11039;SDS011;5573;49.592;8.662;2024-03-06T03:04:09;26.10;;;24.77;;
11039;SDS011;5573;49.592;8.662;2024-03-06T03:06:37;27.23;;;25.83;;
11039;SDS011;5573;49.592;8.662;2024-03-06T03:09:05;27.60;;;26.13;;
11039;SDS011;5573;49.592;8.662;2024-03-06T03:11:33;27.10;;;25.70;;
11039;SDS011;5573;49.592;8.662;2024-03-06T03:14:03;26.10;;;24.70;;
11039;SDS011;5573;49.592;8.662;2024-03-06T03:16:31;26.70;;;25.30;;
11039;SDS011;5573;49.592;8.662;2024-03-06T03:18:59;26.83;;;25.47;;
11039;SDS011;5573;49.592;8.662;2024-03-06T03:21:27;26.37;;;24.97;;
11039;SDS011;5573;49.592;8.662;2024-03-06T03:23:55;27.13;;;25.73;;
11039;SDS011;5573;49.592;8.662;2024-03-06T03:26:23;25.33;;;23.97;;
11039;SDS011;5573;49.592;8.662;2024-03-06T03:28:50;22.27;;;21.03;;
11039;SDS011;5573;49.592;8.662;2024-03-06T03:31:20;25.80;;;24.50;;
11039;SDS011;5573;49.592;8.662;2024-03-06T03:33:48;24.10;;;22.83;;
11039;SDS011;5573;49.592;8.662;2024-03-06T03:36:16;24.13;;;22.93;;
11039;SDS011;5573;49.592;8.662;2024-03-06T03:38:43;25.43;;;24.13;;
11039;SDS011;5573;49.592;8.662;2024-03-06T03:41:12;25.63;;;24.30;;
11039;SDS011;5573;49.592;8.662;2024-03-06T03:43:41;25.50;;;24.20;;
11039;SDS011;5573;49.592;8.662;2024-03-06T03:46:09;25.77;;;24.40;;
11039;SDS011;5573;49.592;8.662;2024-03-06T03:48:38;26.07;;;24.77;;
11039;SDS011;5573;49.592;8.662;2024-03-06T03:51:06;25.23;;;23.93;;
11039;SDS011;5573;49.592;8.662;2024-03-06T03:53:34;23.50;;;22.20;;
11039;SDS011;5573;49.592;8.662;2024-03-06T03:56:02;27.73;;;26.33;;
11039;SDS011;5573;49.592;8.662;2024-03-06T03:58:30;28.63;;;27.17;;
11039;SDS011;5573;49.592;8.662;2024-03-06T04:00:58;27.27;;;25.87;;
11039;SDS011;5573;49.592;8.662;2024-03-06T04:03:26;27.27;;;25.83;;
11039;SDS011;5573;49.592;8.662;2024-03-06T04:05:55;25.77;;;24.47;;
11039;SDS011;5573;49.592;8.662;2024-03-06T04:08:23;27.10;;;25.70;;
11039;SDS011;5573;49.592;8.662;2024-03-06T04:10:51;24.27;;;23.00;;
11039;SDS011;5573;49.592;8.662;2024-03-06T04:13:18;25.40;;;24.10;;
11039;SDS011;5573;49.592;8.662;2024-03-06T04:15:47;23.87;;;22.63;;
11039;SDS011;5573;49.592;8.662;2024-03-06T04:18:15;23.97;;;22.73;;
11039;SDS011;5573;49.592;8.662;2024-03-06T04:20:43;23.80;;;22.60;;
11039;SDS011;5573;49.592;8.662;2024-03-06T04:23:12;24.80;;;23.50;;
11039;SDS011;5573;49.592;8.662;2024-03-06T04:25:40;21.57;;;20.47;;
11039;SDS011;5573;49.592;8.662;2024-03-06T04:28:08;22.50;;;21.40;;
11039;SDS011;5573;49.592;8.662;2024-03-06T04:30:35;22.13;;;21.00;;
11039;SDS011;5573;49.592;8.662;2024-03-06T04:33:03;22.87;;;21.70;;
11039;SDS011;5573;49.592;8.662;2024-03-06T04:35:31;22.13;;;21.03;;
11039;SDS011;5573;49.592;8.662;2024-03-06T04:38:00;22.80;;;21.67;;
11039;SDS011;5573;49.592;8.662;2024-03-06T04:40:31;22.33;;;21.20;;
11039;SDS011;5573;49.592;8.662;2024-03-06T04:42:59;22.50;;;21.30;;
11039;SDS011;5573;49.592;8.662;2024-03-06T04:45:27;21.97;;;20.77;;
11039;SDS011;5573;49.592;8.662;2024-03-06T04:47:55;23.00;;;21.80;;
11039;SDS011;5573;49.592;8.662;2024-03-06T04:50:23;20.80;;;19.73;;
11039;SDS011;5573;49.592;8.662;2024-03-06T04:52:51;22.50;;;21.30;;
11039;SDS011;5573;49.592;8.662;2024-03-06T04:55:19;23.63;;;22.43;;
11039;SDS011;5573;49.592;8.662;2024-03-06T04:57:51;23.20;;;22.03;;
11039;SDS011;5573;49.592;8.662;2024-03-06T05:00:20;23.37;;;22.13;;
11039;SDS011;5573;49.592;8.662;2024-03-06T05:02:47;24.43;;;23.17;;
11039;SDS011;5573;49.592;8.662;2024-03-06T05:05:34;21.07;;;19.97;;
11039;SDS011;5573;49.592;8.662;2024-03-06T05:08:21;22.87;;;21.70;;
11039;SDS011;5573;49.592;8.662;2024-03-06T05:11:06;23.33;;;22.13;;
11039;SDS011;5573;49.592;8.662;2024-03-06T05:13:53;21.73;;;20.63;;
11039;SDS011;5573;49.592;8.662;2024-03-06T05:16:38;23.33;;;22.17;;
11039;SDS011;5573;49.592;8.662;2024-03-06T05:19:24;23.53;;;22.33;;
11039;SDS011;5573;49.592;8.662;2024-03-06T05:22:16;24.13;;;22.77;;
11039;SDS011;5573;49.592;8.662;2024-03-06T05:25:02;22.53;;;21.43;;
11039;SDS011;5573;49.592;8.662;2024-03-06T05:27:49;22.37;;;21.17;;
11039;SDS011;5573;49.592;8.662;2024-03-06T05:30:36;23.10;;;21.93;;
11039;SDS011;5573;49.592;8.662;2024-03-06T05:33:21;21.97;;;20.87;;
11039;SDS011;5573;49.592;8.662;2024-03-06T05:36:07;24.73;;;23.43;;
11039;SDS011;5573;49.592;8.662;2024-03-06T05:38:52;25.63;;;24.27;;
11039;SDS011;5573;49.592;8.662;2024-03-06T05:41:38;21.67;;;20.57;;
11039;SDS011;5573;49.592;8.662;2024-03-06T05:44:25;26.03;;;24.70;;
11039;SDS011;5573;49.592;8.662;2024-03-06T05:47:12;24.73;;;23.43;;
11039;SDS011;5573;49.592;8.662;2024-03-06T05:49:59;23.07;;;21.87;;
11039;SDS011;5573;49.592;8.662;2024-03-06T05:52:48;21.83;;;20.63;;
11039;SDS011;5573;49.592;8.662;2024-03-06T05:55:34;24.70;;;23.43;;
11039;SDS011;5573;49.592;8.662;2024-03-06T05:58:19;26.10;;;24.80;;
11039;SDS011;5573;49.592;8.662;2024-03-06T06:00:47;24.30;;;22.87;;
11039;SDS011;5573;49.592;8.662;2024-03-06T06:03:17;25.23;;;23.90;;
11039;SDS011;5573;49.592;8.662;2024-03-06T06:05:45;25.43;;;24.10;;
11039;SDS011;5573;49.592;8.662;2024-03-06T06:08:13;27.73;;;26.27;;
11039;SDS011;5573;49.592;8.662;2024-03-06T06:10:41;26.43;;;25.00;;
11039;SDS011;5573;49.592;8.662;2024-03-06T06:13:08;27.30;;;25.90;;
11039;SDS011;5573;49.592;8.662;2024-03-06T06:15:36;28.20;;;26.77;;
11039;SDS011;5573;49.592;8.662;2024-03-06T06:18:04;27.47;;;26.03;;
11039;SDS011;5573;49.592;8.662;2024-03-06T06:20:34;27.73;;;26.33;;
11039;SDS011;5573;49.592;8.662;2024-03-06T06:23:02;28.43;;;26.93;;
11039;SDS011;5573;49.592;8.662;2024-03-06T06:25:30;23.93;;;22.73;;
11039;SDS011;5573;49.592;8.662;2024-03-06T06:27:57;27.77;;;26.33;;
11039;SDS011;5573;49.592;8.662;2024-03-06T06:30:25;26.93;;;25.53;;
11039;SDS011;5573;49.592;8.662;2024-03-06T06:32:53;27.93;;;26.47;;
11039;SDS011;5573;49.592;8.662;2024-03-06T06:35:21;27.97;;;26.53;;
11039;SDS011;5573;49.592;8.662;2024-03-06T06:37:50;25.83;;;24.43;;
11039;SDS011;5573;49.592;8.662;2024-03-06T06:40:18;26.10;;;24.70;;
11039;SDS011;5573;49.592;8.662;2024-03-06T06:42:47;25.00;;;23.73;;
11039;SDS011;5573;49.592;8.662;2024-03-06T06:45:17;24.10;;;22.80;;
11039;SDS011;5573;49.592;8.662;2024-03-06T06:47:45;25.80;;;24.43;;
11039;SDS011;5573;49.592;8.662;2024-03-06T06:50:13;26.93;;;25.53;;
11039;SDS011;5573;49.592;8.662;2024-03-06T06:52:41;25.63;;;24.33;;
11039;SDS011;5573;49.592;8.662;2024-03-06T06:55:10;27.10;;;25.70;;
11039;SDS011;5573;49.592;8.662;2024-03-06T06:57:38;25.07;;;23.77;;
11039;SDS011;5573;49.592;8.662;2024-03-06T07:00:07;26.93;;;25.37;;
11039;SDS011;5573;49.592;8.662;2024-03-06T07:02:38;23.93;;;22.70;;
11039;SDS011;5573;49.592;8.662;2024-03-06T07:05:07;27.77;;;26.30;;
11039;SDS011;5573;49.592;8.662;2024-03-06T07:07:37;24.27;;;22.97;;
11039;SDS011;5573;49.592;8.662;2024-03-06T07:10:05;27.13;;;25.73;;
11039;SDS011;5573;49.592;8.662;2024-03-06T07:12:36;25.10;;;23.77;;
11039;SDS011;5573;49.592;8.662;2024-03-06T07:15:04;24.20;;;22.93;;
11039;SDS011;5573;49.592;8.662;2024-03-06T07:17:33;27.33;;;25.93;;
11039;SDS011;5573;49.592;8.662;2024-03-06T07:20:01;29.47;;;27.93;;
11039;SDS011;5573;49.592;8.662;2024-03-06T07:22:31;25.47;;;24.10;;
11039;SDS011;5573;49.592;8.662;2024-03-06T07:25:00;30.33;;;28.67;;
11039;SDS011;5573;49.592;8.662;2024-03-06T07:27:28;28.97;;;27.47;;
11039;SDS011;5573;49.592;8.662;2024-03-06T07:29:57;29.13;;;27.57;;
11039;SDS011;5573;49.592;8.662;2024-03-06T07:32:25;29.00;;;27.50;;
11039;SDS011;5573;49.592;8.662;2024-03-06T07:34:53;27.90;;;26.47;;
11039;SDS011;5573;49.592;8.662;2024-03-06T07:37:21;30.43;;;28.83;;
11039;SDS011;5573;49.592;8.662;2024-03-06T07:39:49;28.33;;;26.87;;
11039;SDS011;5573;49.592;8.662;2024-03-06T07:42:19;28.60;;;27.07;;
11039;SDS011;5573;49.592;8.662;2024-03-06T07:44:47;30.47;;;28.80;;
11039;SDS011;5573;49.592;8.662;2024-03-06T07:47:16;33.93;;;32.13;;
11039;SDS011;5573;49.592;8.662;2024-03-06T07:49:44;32.63;;;30.90;;
11039;SDS011;5573;49.592;8.662;2024-03-06T07:52:12;32.63;;;30.83;;
11039;SDS011;5573;49.592;8.662;2024-03-06T07:54:40;32.00;;;30.27;;
11039;SDS011;5573;49.592;8.662;2024-03-06T07:57:08;34.90;;;33.07;;
11039;SDS011;5573;49.592;8.662;2024-03-06T07:59:36;34.17;;;32.27;;
11039;SDS011;5573;49.592;8.662;2024-03-06T08:02:04;35.63;;;33.73;;
11039;SDS011;5573;49.592;8.662;2024-03-06T08:04:34;35.37;;;33.37;;
11039;SDS011;5573;49.592;8.662;2024-03-06T08:07:03;34.80;;;32.97;;
11039;SDS011;5573;49.592;8.662;2024-03-06T08:09:31;34.67;;;32.87;;
11039;SDS011;5573;49.592;8.662;2024-03-06T08:11:59;36.30;;;34.33;;
11039;SDS011;5573;49.592;8.662;2024-03-06T08:14:27;36.03;;;34.13;;
11039;SDS011;5573;49.592;8.662;2024-03-06T08:16:55;37.67;;;35.63;;
11039;SDS011;5573;49.592;8.662;2024-03-06T08:19:23;34.93;;;33.03;;
11039;SDS011;5573;49.592;8.662;2024-03-06T08:21:53;36.40;;;34.40;;
11039;SDS011;5573;49.592;8.662;2024-03-06T08:24:21;35.60;;;33.70;;
11039;SDS011;5573;49.592;8.662;2024-03-06T08:26:49;38.13;;;36.03;;
11039;SDS011;5573;49.592;8.662;2024-03-06T08:29:16;38.07;;;36.00;;
11039;SDS011;5573;49.592;8.662;2024-03-06T08:31:44;34.20;;;32.37;;
11039;SDS011;5573;49.592;8.662;2024-03-06T08:34:12;40.23;;;37.90;;
11039;SDS011;5573;49.592;8.662;2024-03-06T08:36:40;40.60;;;38.40;;
11039;SDS011;5573;49.592;8.662;2024-03-06T08:39:09;43.03;;;40.67;;
11039;SDS011;5573;49.592;8.662;2024-03-06T08:41:39;42.53;;;40.17;;
11039;SDS011;5573;49.592;8.662;2024-03-06T08:44:08;43.97;;;41.67;;
11039;SDS011;5573;49.592;8.662;2024-03-06T08:46:36;46.10;;;43.63;;
11039;SDS011;5573;49.592;8.662;2024-03-06T08:49:04;45.33;;;42.87;;
11039;SDS011;5573;49.592;8.662;2024-03-06T08:51:35;48.47;;;45.90;;
11039;SDS011;5573;49.592;8.662;2024-03-06T08:54:03;48.33;;;45.80;;
11039;SDS011;5573;49.592;8.662;2024-03-06T08:56:32;49.90;;;47.10;;
11039;SDS011;5573;49.592;8.662;2024-03-06T08:59:00;44.70;;;42.33;;
11039;SDS011;5573;49.592;8.662;2024-03-06T09:01:30;48.80;;;46.17;;
11039;SDS011;5573;49.592;8.662;2024-03-06T09:03:58;48.50;;;45.80;;
11039;SDS011;5573;49.592;8.662;2024-03-06T09:06:25;49.83;;;46.93;;
11039;SDS011;5573;49.592;8.662;2024-03-06T09:08:54;48.03;;;45.43;;
11039;SDS011;5573;49.592;8.662;2024-03-06T09:11:22;46.43;;;43.93;;
11039;SDS011;5573;49.592;8.662;2024-03-06T09:13:52;52.70;;;49.80;;
11039;SDS011;5573;49.592;8.662;2024-03-06T09:16:19;51.03;;;48.33;;
11039;SDS011;5573;49.592;8.662;2024-03-06T09:18:47;51.30;;;48.57;;
11039;SDS011;5573;49.592;8.662;2024-03-06T09:21:15;48.17;;;45.63;;
11039;SDS011;5573;49.592;8.662;2024-03-06T09:23:43;50.13;;;47.53;;
11039;SDS011;5573;49.592;8.662;2024-03-06T09:26:10;48.50;;;45.90;;
11039;SDS011;5573;49.592;8.662;2024-03-06T09:28:39;54.42;;;51.53;;
11039;SDS011;5573;49.592;8.662;2024-03-06T09:31:08;52.38;;;49.58;;
11039;SDS011;5573;49.592;8.662;2024-03-06T09:33:35;55.15;;;52.17;;
11039;SDS011;5573;49.592;8.662;2024-03-06T09:36:03;54.45;;;51.55;;
11039;SDS011;5573;49.592;8.662;2024-03-06T09:38:31;54.03;;;50.97;;
11039;SDS011;5573;49.592;8.662;2024-03-06T09:40:59;52.85;;;50.03;;
11039;SDS011;5573;49.592;8.662;2024-03-06T09:43:27;52.55;;;49.67;;
11039;SDS011;5573;49.592;8.662;2024-03-06T09:45:57;54.67;;;51.78;;
11039;SDS011;5573;49.592;8.662;2024-03-06T09:48:26;49.42;;;46.80;;
11039;SDS011;5573;49.592;8.662;2024-03-06T09:50:57;50.22;;;47.47;;
11039;SDS011;5573;49.592;8.662;2024-03-06T09:53:29;49.47;;;46.75;;
11039;SDS011;5573;49.592;8.662;2024-03-06T09:55:56;47.70;;;45.15;;
11039;SDS011;5573;49.592;8.662;2024-03-06T09:58:25;47.75;;;45.20;;
11039;SDS011;5573;49.592;8.662;2024-03-06T10:00:53;46.58;;;44.15;;
11039;SDS011;5573;49.592;8.662;2024-03-06T10:03:23;46.20;;;43.75;;
11039;SDS011;5573;49.592;8.662;2024-03-06T10:05:53;48.10;;;45.58;;
11039;SDS011;5573;49.592;8.662;2024-03-06T10:08:22;49.28;;;46.65;;
11039;SDS011;5573;49.592;8.662;2024-03-06T10:10:53;45.05;;;42.67;;
11039;SDS011;5573;49.592;8.662;2024-03-06T10:13:22;52.53;;;49.65;;
11039;SDS011;5573;49.592;8.662;2024-03-06T10:15:57;41.22;;;39.03;;
11039;SDS011;5573;49.592;8.662;2024-03-06T10:18:27;40.63;;;38.42;;
11039;SDS011;5573;49.592;8.662;2024-03-06T10:20:57;37.50;;;35.40;;
11039;SDS011;5573;49.592;8.662;2024-03-06T10:23:25;37.15;;;35.05;;
11039;SDS011;5573;49.592;8.662;2024-03-06T10:25:54;37.33;;;35.38;;
11039;SDS011;5573;49.592;8.662;2024-03-06T10:28:23;35.55;;;33.63;;
11039;SDS011;5573;49.592;8.662;2024-03-06T10:30:51;37.33;;;35.15;;
11039;SDS011;5573;49.592;8.662;2024-03-06T10:33:31;37.05;;;34.92;;
11039;SDS011;5573;49.592;8.662;2024-03-06T10:36:00;41.40;;;38.92;;
11039;SDS011;5573;49.592;8.662;2024-03-06T10:38:30;39.42;;;37.17;;
11039;SDS011;5573;49.592;8.662;2024-03-06T10:41:04;43.85;;;41.45;;
11039;SDS011;5573;49.592;8.662;2024-03-06T10:43:34;40.70;;;38.42;;
11039;SDS011;5573;49.592;8.662;2024-03-06T10:46:05;40.97;;;38.65;;
11039;SDS011;5573;49.592;8.662;2024-03-06T10:48:35;45.67;;;42.97;;
11039;SDS011;5573;49.592;8.662;2024-03-06T10:51:05;45.63;;;42.97;;
11039;SDS011;5573;49.592;8.662;2024-03-06T10:53:35;47.60;;;45.03;;
11039;SDS011;5573;49.592;8.662;2024-03-06T10:56:05;43.85;;;41.33;;
11039;SDS011;5573;49.592;8.662;2024-03-06T10:58:36;44.22;;;41.83;;
11039;SDS011;5573;49.592;8.662;2024-03-06T11:01:05;42.08;;;39.78;;
11039;SDS011;5573;49.592;8.662;2024-03-06T11:03:37;43.47;;;41.00;;
11039;SDS011;5573;49.592;8.662;2024-03-06T11:06:06;46.40;;;43.72;;
11039;SDS011;5573;49.592;8.662;2024-03-06T11:08:35;48.60;;;45.92;;
11039;SDS011;5573;49.592;8.662;2024-03-06T11:11:18;46.90;;;44.30;;
11039;SDS011;5573;49.592;8.662;2024-03-06T11:13:47;47.15;;;44.55;;
11039;SDS011;5573;49.592;8.662;2024-03-06T11:16:15;47.25;;;44.72;;
11039;SDS011;5573;49.592;8.662;2024-03-06T11:18:43;53.20;;;50.35;;
11039;SDS011;5573;49.592;8.662;2024-03-06T11:21:34;59.92;;;56.67;;
11039;SDS011;5573;49.592;8.662;2024-03-06T11:24:13;56.80;;;53.70;;
11039;SDS011;5573;49.592;8.662;2024-03-06T11:26:57;63.38;;;59.92;;
11039;SDS011;5573;49.592;8.662;2024-03-06T11:29:28;73.68;;;69.78;;
11039;SDS011;5573;49.592;8.662;2024-03-06T11:32:00;75.15;;;71.05;;
11039;SDS011;5573;49.592;8.662;2024-03-06T11:34:37;79.95;;;75.68;;
11039;SDS011;5573;49.592;8.662;2024-03-06T11:37:07;78.00;;;73.75;;
11039;SDS011;5573;49.592;8.662;2024-03-06T11:39:38;75.97;;;71.93;;
11039;SDS011;5573;49.592;8.662;2024-03-06T11:42:08;65.57;;;61.95;;
11039;SDS011;5573;49.592;8.662;2024-03-06T11:44:36;76.93;;;72.72;;
11039;SDS011;5573;49.592;8.662;2024-03-06T11:47:05;68.28;;;64.57;;
11039;SDS011;5573;49.592;8.662;2024-03-06T11:49:35;71.35;;;67.53;;
11039;SDS011;5573;49.592;8.662;2024-03-06T11:52:04;71.55;;;67.70;;
11039;SDS011;5573;49.592;8.662;2024-03-06T11:54:36;69.97;;;66.10;;
11039;SDS011;5573;49.592;8.662;2024-03-06T11:57:05;69.35;;;65.47;;
11039;SDS011;5573;49.592;8.662;2024-03-06T11:59:33;72.28;;;68.30;;
11039;SDS011;5573;49.592;8.662;2024-03-06T12:02:03;76.53;;;72.20;;
11039;SDS011;5573;49.592;8.662;2024-03-06T12:04:33;72.90;;;68.93;;
11039;SDS011;5573;49.592;8.662;2024-03-06T12:07:03;77.50;;;73.40;;
11039;SDS011;5573;49.592;8.662;2024-03-06T12:09:35;78.03;;;73.85;;
11039;SDS011;5573;49.592;8.662;2024-03-06T12:12:08;76.32;;;72.22;;
11039;SDS011;5573;49.592;8.662;2024-03-06T12:14:37;74.63;;;70.60;;
11039;SDS011;5573;49.592;8.662;2024-03-06T12:17:11;75.35;;;71.22;;
11039;SDS011;5573;49.592;8.662;2024-03-06T12:19:41;71.85;;;67.95;;
11039;SDS011;5573;49.592;8.662;2024-03-06T12:22:10;64.57;;;61.08;;
11039;SDS011;5573;49.592;8.662;2024-03-06T12:24:39;63.92;;;60.45;;
11039;SDS011;5573;49.592;8.662;2024-03-06T12:27:07;55.20;;;52.08;;
11039;SDS011;5573;49.592;8.662;2024-03-06T12:29:35;51.90;;;48.95;;
11039;SDS011;5573;49.592;8.662;2024-03-06T12:32:04;52.33;;;49.33;;
11039;SDS011;5573;49.592;8.662;2024-03-06T12:34:43;52.22;;;49.38;;
11039;SDS011;5573;49.592;8.662;2024-03-06T12:37:11;56.72;;;53.30;;
11039;SDS011;5573;49.592;8.662;2024-03-06T12:39:40;56.08;;;52.90;;
11039;SDS011;5573;49.592;8.662;2024-03-06T12:42:11;54.42;;;51.47;;
11039;SDS011;5573;49.592;8.662;2024-03-06T12:44:39;51.17;;;48.28;;
11039;SDS011;5573;49.592;8.662;2024-03-06T12:47:07;46.45;;;43.85;;
11039;SDS011;5573;49.592;8.662;2024-03-06T12:49:36;44.65;;;42.10;;
11039;SDS011;5573;49.592;8.662;2024-03-06T12:52:04;51.35;;;48.45;;
11039;SDS011;5573;49.592;8.662;2024-03-06T12:54:32;45.28;;;42.78;;
11039;SDS011;5573;49.592;8.662;2024-03-06T12:57:01;48.17;;;45.50;;
11039;SDS011;5573;49.592;8.662;2024-03-06T12:59:29;51.30;;;48.42;;
11039;SDS011;5573;49.592;8.662;2024-03-06T13:01:56;52.75;;;49.83;;
11039;SDS011;5573;49.592;8.662;2024-03-06T13:04:25;48.30;;;45.60;;
11039;SDS011;5573;49.592;8.662;2024-03-06T13:06:53;48.83;;;46.22;;
11039;SDS011;5573;49.592;8.662;2024-03-06T13:09:20;49.67;;;46.90;;
11039;SDS011;5573;49.592;8.662;2024-03-06T13:11:49;49.35;;;46.70;;
11039;SDS011;5573;49.592;8.662;2024-03-06T13:14:19;44.15;;;41.70;;
11039;SDS011;5573;49.592;8.662;2024-03-06T13:16:47;40.83;;;38.50;;
11039;SDS011;5573;49.592;8.662;2024-03-06T13:19:15;42.85;;;40.30;;
11039;SDS011;5573;49.592;8.662;2024-03-06T13:21:43;46.13;;;43.58;;
11039;SDS011;5573;49.592;8.662;2024-03-06T13:24:11;45.58;;;43.00;;
11039;SDS011;5573;49.592;8.662;2024-03-06T13:26:38;43.75;;;41.38;;
11039;SDS011;5573;49.592;8.662;2024-03-06T13:29:07;39.45;;;37.22;;
11039;SDS011;5573;49.592;8.662;2024-03-06T13:31:36;39.47;;;37.17;;
11039;SDS011;5573;49.592;8.662;2024-03-06T13:34:04;36.60;;;34.60;;
11039;SDS011;5573;49.592;8.662;2024-03-06T13:36:32;41.65;;;39.17;;
11039;SDS011;5573;49.592;8.662;2024-03-06T13:39:00;37.10;;;35.10;;
11039;SDS011;5573;49.592;8.662;2024-03-06T13:41:27;37.33;;;35.20;;
11039;SDS011;5573;49.592;8.662;2024-03-06T13:43:57;41.53;;;39.25;;
11039;SDS011;5573;49.592;8.662;2024-03-06T13:46:24;36.42;;;34.38;;
11039;SDS011;5573;49.592;8.662;2024-03-06T13:48:53;39.97;;;37.83;;
11039;SDS011;5573;49.592;8.662;2024-03-06T13:51:21;41.40;;;39.13;;
11039;SDS011;5573;49.592;8.662;2024-03-06T13:53:49;39.08;;;36.97;;
11039;SDS011;5573;49.592;8.662;2024-03-06T13:56:17;42.42;;;40.00;;
11039;SDS011;5573;49.592;8.662;2024-03-06T13:58:45;49.85;;;47.08;;
11039;SDS011;5573;49.592;8.662;2024-03-06T14:01:13;48.55;;;45.85;;
11039;SDS011;5573;49.592;8.662;2024-03-06T14:03:42;45.17;;;42.63;;
11039;SDS011;5573;49.592;8.662;2024-03-06T14:06:11;49.63;;;46.88;;
11039;SDS011;5573;49.592;8.662;2024-03-06T14:08:38;53.08;;;50.10;;
11039;SDS011;5573;49.592;8.662;2024-03-06T14:11:07;49.40;;;46.63;;
11039;SDS011;5573;49.592;8.662;2024-03-06T14:13:35;50.92;;;47.92;;
11039;SDS011;5573;49.592;8.662;2024-03-06T14:16:04;48.13;;;45.50;;
11039;SDS011;5573;49.592;8.662;2024-03-06T14:18:32;51.90;;;49.10;;
11039;SDS011;5573;49.592;8.662;2024-03-06T14:21:00;52.83;;;49.88;;
11039;SDS011;5573;49.592;8.662;2024-03-06T14:23:30;49.33;;;46.63;;
11039;SDS011;5573;49.592;8.662;2024-03-06T14:25:58;46.85;;;44.25;;
11039;SDS011;5573;49.592;8.662;2024-03-06T14:28:28;47.50;;;44.95;;
11039;SDS011;5573;49.592;8.662;2024-03-06T14:30:57;51.00;;;48.13;;
11039;SDS011;5573;49.592;8.662;2024-03-06T14:33:24;58.35;;;55.10;;
11039;SDS011;5573;49.592;8.662;2024-03-06T14:35:53;52.53;;;49.63;;
11039;SDS011;5573;49.592;8.662;2024-03-06T14:38:21;49.45;;;46.80;;
11039;SDS011;5573;49.592;8.662;2024-03-06T14:40:50;57.92;;;54.70;;
11039;SDS011;5573;49.592;8.662;2024-03-06T14:43:18;61.65;;;58.28;;
11039;SDS011;5573;49.592;8.662;2024-03-06T14:45:46;62.45;;;58.97;;
11039;SDS011;5573;49.592;8.662;2024-03-06T14:48:14;67.80;;;64.07;;